Time;durP1;ratioP1;P1;durP2;ratioP2;P2;SDS_P1;SDS_P2;PMS_P1;PMS_P2;Temp;Humidity;BMP_temperature;BMP_pressure;BME280_temperature;BME280_humidity;BME280_pressure;Samples;Min_cycle;Max_cycle;Signal;HPM_P1;HPM_P2
2021/06/02 06:45:22;;;;;;;13.80;5.22;;;;;;;14.18;57.98;98470.55;1871387;76;21942;-64
2021/06/02 06:47:49;;;;;;;6.60;4.30;;;;;;;14.26;57.39;98477.94;1827321;77;20903;-60
2021/06/02 06:50:17;;;;;;;10.03;4.12;;;;;;;14.43;57.04;98467.91;1827316;78;21655;-60
2021/06/02 06:52:53;;;;;;;8.40;3.77;;;;;;;14.57;55.47;98469.48;1826323;78;21002;-62
2021/06/02 06:55:21;;;;;;;7.97;3.83;;;;;;;14.71;55.05;98471.58;1826675;78;21007;-61
2021/06/02 06:57:48;;;;;;;7.28;3.85;;;;;;;14.88;54.65;98477.11;1826148;78;20943;-62
2021/06/02 07:00:17;;;;;;;12.53;3.98;;;;;;;15.03;53.74;98469.98;1734633;80;21001;-61
2021/06/02 07:02:44;;;;;;;9.50;3.90;;;;;;;15.21;52.93;98475.50;1790094;80;21088;-63
2021/06/02 07:05:12;;;;;;;7.35;3.83;;;;;;;15.35;53.04;98465.42;1789818;80;21598;-63
2021/06/02 07:07:43;;;;;;;8.03;3.52;;;;;;;15.54;52.87;98467.38;1789990;80;21681;-62
2021/06/02 07:10:13;;;;;;;12.50;3.75;;;;;;;15.71;52.63;98462.03;1790398;80;20963;-63
2021/06/02 07:12:43;;;;;;;15.32;4.05;;;;;;;15.92;52.15;98460.36;1791456;80;20867;-62
2021/06/02 07:15:11;;;;;;;6.42;3.40;;;;;;;16.07;49.18;98455.88;1791678;80;21103;-63
2021/06/02 07:17:46;;;;;;;12.40;3.42;;;;;;;16.12;48.70;98458.98;1791257;80;21410;-63
2021/06/02 07:20:25;;;;;;;6.97;2.52;;;;;;;16.19;48.86;98460.13;1791401;80;20947;-65
2021/06/02 07:22:53;;;;;;;8.28;2.45;;;;;;;16.29;48.37;98453.08;1791322;80;20887;-63
2021/06/02 07:25:24;;;;;;;7.85;2.72;;;;;;;16.27;45.98;98457.20;1791271;80;20875;-61
2021/06/02 07:27:51;;;;;;;8.28;2.90;;;;;;;16.14;46.78;98458.92;1790936;80;21737;-61
2021/06/02 07:30:19;;;;;;;9.00;2.70;;;;;;;16.10;46.78;98455.27;1790946;80;20912;-67
2021/06/02 07:32:46;;;;;;;9.28;2.20;;;;;;;16.19;46.53;98447.16;1791537;80;21403;-61
2021/06/02 07:35:13;;;;;;;5.75;2.15;;;;;;;16.19;44.98;98452.02;1791255;80;20918;-58
2021/06/02 07:37:41;;;;;;;7.92;2.00;;;;;;;16.15;45.07;98454.31;1790199;79;20938;-68
2021/06/02 07:40:11;;;;;;;5.42;2.17;;;;;;;16.10;44.86;98446.36;1747279;82;21198;-66
2021/06/02 07:42:38;;;;;;;3.70;1.80;;;;;;;16.08;45.04;98439.92;1765659;81;21450;-63
2021/06/02 07:45:06;;;;;;;4.72;2.60;;;;;;;16.11;45.25;98452.02;1754314;81;21009;-63
2021/06/02 07:47:35;;;;;;;9.28;2.27;;;;;;;16.14;45.31;98448.11;1752127;82;20989;-61
2021/06/02 07:50:02;;;;;;;4.35;2.00;;;;;;;16.25;45.57;98448.63;1752234;82;20887;-61
2021/06/02 07:52:31;;;;;;;6.10;2.00;;;;;;;16.38;45.10;98444.42;1747373;82;20883;-63
2021/06/02 07:54:59;;;;;;;8.15;1.92;;;;;;;16.46;44.10;98444.74;1747141;82;20976;-62
2021/06/02 07:57:28;;;;;;;4.47;2.08;;;;;;;16.55;43.67;98450.97;1746872;82;20982;-64
2021/06/02 07:59:56;;;;;;;5.22;1.95;;;;;;;16.65;43.73;98444.67;1746775;82;20973;-62
2021/06/02 08:02:23;;;;;;;6.97;1.98;;;;;;;16.75;43.28;98443.56;1761198;80;21020;-65
2021/06/02 08:04:50;;;;;;;8.18;1.72;;;;;;;16.80;43.26;98452.88;1794186;79;21036;-62
2021/06/02 08:07:17;;;;;;;4.47;2.17;;;;;;;16.77;42.16;98444.84;1776956;80;20951;-61
2021/06/02 08:09:45;;;;;;;11.33;2.35;;;;;;;16.75;41.84;98443.56;1776460;80;20896;-63
2021/06/02 08:12:13;;;;;;;5.90;1.80;;;;;;;16.74;41.32;98450.11;1777060;80;21004;-62
2021/06/02 08:14:40;;;;;;;3.75;2.08;;;;;;;16.72;41.65;98445.58;1777037;80;20868;-64
2021/06/02 08:17:07;;;;;;;10.32;2.10;;;;;;;16.65;40.94;98449.31;1777000;80;21120;-63
2021/06/02 08:19:34;;;;;;;8.38;1.90;;;;;;;16.52;41.58;98439.44;1776465;80;20943;-63
2021/06/02 08:22:03;;;;;;;6.65;1.60;;;;;;;16.42;42.19;98441.31;1766019;80;20840;-63
2021/06/02 08:24:38;;;;;;;11.78;2.17;;;;;;;16.49;42.86;98440.06;1746577;80;20968;-62
2021/06/02 08:27:01;;;;;;;3.58;1.50;;;;;;;16.64;42.40;98435.55;1767304;80;21131;-61
2021/06/02 08:29:28;;;;;;;4.83;1.47;;;;;;;16.81;41.25;98442.30;1756175;81;21467;-62
2021/06/02 08:31:57;;;;;;;6.85;1.60;;;;;;;16.90;40.62;98445.24;1779003;80;21347;-61
2021/06/02 08:34:24;;;;;;;5.37;1.50;;;;;;;16.97;39.78;98443.40;1781010;80;21022;-63
2021/06/02 08:36:53;;;;;;;9.40;1.65;;;;;;;17.06;39.39;98440.12;1755599;79;20966;-63
2021/06/02 08:39:20;;;;;;;6.40;1.50;;;;;;;17.20;38.66;98444.78;1816395;77;20881;-62
2021/06/02 08:41:51;;;;;;;2.47;1.20;;;;;;;17.34;38.35;98445.38;1815751;79;21092;-62
2021/06/02 08:44:21;;;;;;;7.58;1.35;;;;;;;17.49;38.02;98447.58;1806382;78;20959;-62
2021/06/02 08:46:49;;;;;;;4.65;1.40;;;;;;;17.56;38.49;98443.84;1825234;78;20970;-62
2021/06/02 08:49:18;;;;;;;4.00;1.50;;;;;;;17.65;38.31;98448.66;1826336;78;21005;-61
2021/06/02 08:51:46;;;;;;;3.80;1.35;;;;;;;17.74;38.00;98435.87;1826557;78;20911;-62
2021/06/02 08:54:14;;;;;;;6.10;1.52;;;;;;;17.84;37.86;98439.33;1806684;78;21014;-61
2021/06/02 08:56:44;;;;;;;4.40;1.32;;;;;;;17.93;38.54;98436.01;1826244;78;20904;-62
2021/06/02 08:59:12;;;;;;;6.28;1.52;;;;;;;18.06;38.28;98433.64;1827065;78;20873;-63
2021/06/02 09:01:40;;;;;;;7.90;1.80;;;;;;;18.16;38.64;98438.69;1826971;78;20884;-61
2021/06/02 09:04:09;;;;;;;9.35;1.40;;;;;;;18.25;37.84;98445.62;1827098;78;21490;-62
2021/06/02 09:06:38;;;;;;;6.67;1.22;;;;;;;18.27;37.34;98444.75;1825935;77;22052;-61
2021/06/02 09:09:06;;;;;;;6.65;1.60;;;;;;;18.27;37.17;98443.40;1793188;77;21497;-62
2021/06/02 09:11:39;;;;;;;6.72;1.50;;;;;;;18.32;37.37;98441.05;1827359;77;20989;-62
2021/06/02 09:14:31;;;;;;;2.05;1.10;;;;;;;18.45;37.67;98434.56;1845324;77;20922;-61
2021/06/02 09:17:04;;;;;;;5.00;1.60;;;;;;;18.65;36.84;98428.95;1839151;77;21408;-62
2021/06/02 09:19:46;;;;;;;4.08;1.62;;;;;;;18.81;36.60;98428.01;1832082;77;21438;-61
2021/06/02 09:22:18;;;;;;;4.35;1.65;;;;;;;18.82;36.64;98428.78;1787046;78;20911;-61
2021/06/02 09:24:58;;;;;;;5.45;1.62;;;;;;;18.74;36.92;98438.60;1772664;80;20946;-61
2021/06/02 09:27:47;;;;;;;5.20;1.70;;;;;;;18.63;36.23;98438.75;1759234;81;20950;-61
2021/06/02 09:30:21;;;;;;;5.00;1.92;;;;;;;18.45;37.06;98435.92;1790568;80;21553;-63
2021/06/02 09:32:56;;;;;;;7.08;1.70;;;;;;;18.30;37.40;98430.52;1790676;80;20871;-64
2021/06/02 09:35:41;;;;;;;8.38;1.75;;;;;;;18.25;37.55;98431.30;1761623;80;20835;-61
2021/06/02 09:38:25;;;;;;;5.50;1.65;;;;;;;18.34;38.15;98426.59;1786842;80;21005;-61
2021/06/02 09:40:56;;;;;;;4.62;1.80;;;;;;;18.54;36.96;98420.40;1764116;80;20990;-60
2021/06/02 09:43:33;;;;;;;7.95;1.62;;;;;;;18.54;37.18;98433.16;1767437;80;21101;-61
2021/06/02 09:46:09;;;;;;;12.63;1.75;;;;;;;18.41;37.02;98433.09;1752926;81;21130;-61
2021/06/02 09:48:59;;;;;;;5.28;1.67;;;;;;;18.29;36.29;98434.92;1764035;78;20948;-61
2021/06/02 09:51:38;;;;;;;11.40;1.67;;;;;;;18.18;37.34;98435.09;1745790;81;21144;-63
2021/06/02 09:54:08;;;;;;;7.30;1.82;;;;;;;18.11;37.34;98442.94;1764147;81;21483;-62
2021/06/02 09:56:45;;;;;;;9.38;1.87;;;;;;;18.13;37.25;98436.63;1764626;81;21028;-61
2021/06/02 09:59:15;;;;;;;4.25;1.67;;;;;;;18.19;37.69;98435.30;1764698;81;21077;-63
2021/06/02 10:01:59;;;;;;;9.50;1.80;;;;;;;18.24;38.32;98437.83;1764827;81;20965;-60
2021/06/02 10:04:40;;;;;;;4.22;1.35;;;;;;;18.25;37.35;98442.14;1767755;81;21482;-61
2021/06/02 10:07:23;;;;;;;3.60;1.55;;;;;;;18.17;37.14;98437.55;1773948;81;20983;-60
2021/06/02 10:09:52;;;;;;;5.60;1.50;;;;;;;18.10;36.93;98439.44;1773743;81;20924;-60
2021/06/02 10:12:20;;;;;;;4.00;1.45;;;;;;;18.02;36.66;98437.55;1773866;81;21197;-59
2021/06/02 10:14:58;;;;;;;5.60;1.32;;;;;;;17.97;35.99;98442.39;1768988;81;21071;-62
2021/06/02 10:17:34;;;;;;;4.10;1.40;;;;;;;17.89;35.98;98448.63;1773927;81;20999;-61
2021/06/02 10:20:14;;;;;;;;;;;;;;;17.76;36.69;98449.88;1761631;81;21416;-60
2021/06/02 10:22:42;;;;;;;5.95;1.52;;;;;;;17.71;37.44;98443.87;1773838;81;20132;-64
2021/06/02 10:25:12;;;;;;;4.70;1.42;;;;;;;17.66;37.10;98453.53;1749544;81;21173;-60
2021/06/02 10:27:40;;;;;;;7.42;1.60;;;;;;;17.68;37.46;98452.08;1791801;80;21098;-61
2021/06/02 10:30:10;;;;;;;2.42;1.45;;;;;;;17.72;37.04;98448.15;1790796;79;20911;-60
2021/06/02 10:32:38;;;;;;;5.78;1.60;;;;;;;17.76;36.84;98438.24;1790326;79;21022;-60
2021/06/02 10:35:07;;;;;;;5.40;1.50;;;;;;;17.80;37.48;98443.27;1814469;78;21446;-62
2021/06/02 10:37:41;;;;;;;2.85;1.42;;;;;;;17.86;37.47;98440.59;1815145;77;20975;-60
2021/06/02 10:40:14;;;;;;;8.98;1.60;;;;;;;18.01;38.07;98447.38;1826046;77;21529;-63
2021/06/02 10:42:59;;;;;;;7.53;1.52;;;;;;;18.14;37.29;98444.98;1843056;77;21089;-60
2021/06/02 10:45:31;;;;;;;3.20;1.30;;;;;;;18.20;36.51;98447.75;1827514;77;21451;-61
2021/06/02 10:48:01;;;;;;;3.72;1.60;;;;;;;18.20;36.40;98444.48;1807650;79;21065;-61
2021/06/02 10:50:38;;;;;;;19.12;1.82;;;;;;;18.35;38.25;98441.73;1810334;79;21090;-60
2021/06/02 10:53:24;;;;;;;6.15;1.60;;;;;;;18.64;37.68;98440.36;1816751;78;21034;-62
2021/06/02 10:55:53;;;;;;;10.48;1.60;;;;;;;18.87;37.93;98447.02;1814509;78;20924;-63
2021/06/02 10:58:36;;;;;;;3.22;1.65;;;;;;;19.05;36.01;98438.94;1814434;79;21503;-61
2021/06/02 11:01:17;;;;;;;9.35;1.90;;;;;;;19.19;35.76;98432.42;1813658;78;21043;-61
2021/06/02 11:03:49;;;;;;;5.58;1.77;;;;;;;19.34;37.28;98437.20;1808331;79;21137;-62
2021/06/02 11:06:21;;;;;;;6.80;1.70;;;;;;;19.51;36.28;98441.12;1783685;79;21439;-62
2021/06/02 11:08:56;;;;;;;5.22;1.60;;;;;;;19.64;36.73;98436.72;1818197;78;20872;-60
2021/06/02 11:11:37;;;;;;;3.25;1.45;;;;;;;19.87;35.68;98434.36;1819811;79;20911;-60
2021/06/02 11:14:25;;;;;;;7.22;1.75;;;;;;;20.01;34.50;98440.25;1819674;79;21502;-61
2021/06/02 11:17:01;;;;;;;6.92;1.45;;;;;;;20.11;35.58;98441.16;1819530;79;21332;-61
2021/06/02 11:19:42;;;;;;;5.85;2.30;;;;;;;20.18;35.02;98437.86;1819785;79;20844;-61
2021/06/02 11:22:22;;;;;;;9.30;1.70;;;;;;;20.22;33.66;98442.30;1820124;78;20963;-62
2021/06/02 11:24:51;;;;;;;8.83;2.02;;;;;;;20.14;34.36;98440.45;1791680;79;20955;-61
2021/06/02 11:27:24;;;;;;;8.30;1.60;;;;;;;20.04;34.59;98437.42;1820133;78;20836;-60
2021/06/02 11:30:02;;;;;;;3.10;1.60;;;;;;;20.03;35.26;98445.34;1819702;78;21002;-58
2021/06/02 11:32:31;;;;;;;8.85;1.52;;;;;;;20.02;34.92;98441.05;1815140;78;20867;-59
2021/06/02 11:35:00;;;;;;;2.17;1.30;;;;;;;20.01;35.84;98434.81;1808969;79;21490;-60
2021/06/02 11:37:29;;;;;;;6.10;1.80;;;;;;;20.10;36.00;98435.48;1824593;77;21444;-64
2021/06/02 11:39:59;;;;;;;18.42;2.10;;;;;;;20.29;36.21;98434.92;1818266;78;20955;-61
2021/06/02 11:42:42;;;;;;;9.93;2.00;;;;;;;20.34;34.89;98439.57;1812758;79;21785;-62
2021/06/02 11:45:26;;;;;;;6.30;1.70;;;;;;;20.25;35.04;98447.63;1816487;78;20951;-60
2021/06/02 11:47:56;;;;;;;5.97;1.90;;;;;;;20.10;34.16;98440.92;1820323;78;20991;-61
2021/06/02 11:50:24;;;;;;;8.95;2.30;;;;;;;19.89;34.33;98434.81;1821791;78;20945;-60
2021/06/02 11:53:01;;;;;;;12.20;2.40;;;;;;;19.69;35.82;98445.20;1821909;77;20868;-60
2021/06/02 11:55:29;;;;;;;11.38;1.70;;;;;;;19.54;35.19;98448.61;1821922;78;21108;-62
2021/06/02 11:57:56;;;;;;;3.40;1.70;;;;;;;19.40;35.21;98457.62;1821196;77;20924;-61
2021/06/02 12:00:26;;;;;;;5.87;1.70;;;;;;;19.29;35.93;98456.45;1819703;78;21039;-63
2021/06/02 12:02:59;;;;;;;7.08;1.60;;;;;;;19.29;36.21;98446.36;1820081;78;21416;-60
2021/06/02 12:05:37;;;;;;;5.05;2.00;;;;;;;19.31;36.04;98447.40;1820497;78;21038;-59
2021/06/02 12:08:13;;;;;;;6.50;1.67;;;;;;;19.28;35.53;98454.84;1817404;78;21690;-61
2021/06/02 12:10:49;;;;;;;5.17;1.72;;;;;;;19.25;36.05;98452.80;1787643;80;21005;-62
2021/06/02 12:13:33;;;;;;;13.85;2.42;;;;;;;19.27;36.15;98460.04;1802211;78;20979;-65
2021/06/02 12:16:04;;;;;;;4.58;1.57;;;;;;;19.34;36.31;98456.21;1804617;77;21397;-62
2021/06/02 12:18:44;;;;;;;5.47;1.35;;;;;;;19.46;35.76;98456.27;1749566;81;20944;-63
2021/06/02 12:21:21;;;;;;;4.47;1.77;;;;;;;19.43;35.34;98460.45;1762622;80;21480;-63
2021/06/02 12:23:59;;;;;;;7.83;1.70;;;;;;;19.48;35.47;98457.53;1788868;80;20967;-63
2021/06/02 12:26:33;;;;;;;3.08;1.30;;;;;;;19.56;35.81;98469.43;1788417;80;21485;-63
2021/06/02 12:29:05;;;;;;;5.87;1.75;;;;;;;19.63;34.90;98464.23;1788304;79;21497;-64
2021/06/02 12:31:44;;;;;;;4.50;1.98;;;;;;;19.66;34.97;98455.42;1788241;79;21279;-62
2021/06/02 12:34:19;;;;;;;8.05;1.80;;;;;;;19.68;34.90;98458.59;1788538;80;21803;-61
2021/06/02 12:36:53;;;;;;;9.98;1.87;;;;;;;19.63;35.08;98464.23;1769528;80;21017;-63
2021/06/02 12:39:23;;;;;;;8.48;2.42;;;;;;;19.75;35.64;98462.34;1807545;77;21064;-61
2021/06/02 12:41:52;;;;;;;16.70;2.30;;;;;;;20.13;34.56;98453.05;1821613;77;21341;-62
2021/06/02 12:44:28;;;;;;;9.73;1.80;;;;;;;20.55;33.70;98454.93;1821865;78;20899;-61
2021/06/02 12:47:09;;;;;;;8.08;1.80;;;;;;;20.93;33.03;98444.38;1819492;77;21845;-63
2021/06/02 12:49:44;;;;;;;9.95;2.05;;;;;;;21.19;33.13;98450.20;1814223;78;21003;-62
2021/06/02 12:52:14;;;;;;;5.72;1.62;;;;;;;21.42;33.55;98447.67;1814563;78;20948;-62
2021/06/02 12:54:42;;;;;;;8.75;1.50;;;;;;;21.64;32.07;98443.80;1814382;78;21063;-63
2021/06/02 12:57:09;;;;;;;4.62;1.35;;;;;;;21.52;31.54;98451.25;1814330;79;21094;-63
2021/06/02 12:59:39;;;;;;;6.55;1.55;;;;;;;21.40;32.42;98457.57;1814510;78;21091;-61
2021/06/02 13:02:09;;;;;;;2.40;1.40;;;;;;;21.32;31.98;98446.25;1815041;78;20904;-62
2021/06/02 13:04:36;;;;;;;20.20;1.70;;;;;;;21.24;32.57;98448.58;1811367;79;21474;-61
2021/06/02 13:07:04;;;;;;;2.58;1.30;;;;;;;21.29;32.07;98448.30;1783739;79;20908;-61
2021/06/02 13:09:32;;;;;;;6.00;1.60;;;;;;;21.35;31.82;98454.30;1783748;79;20888;-61
2021/06/02 13:12:08;;;;;;;4.05;1.50;;;;;;;21.33;32.13;98454.66;1788318;78;20955;-61
2021/06/02 13:14:43;;;;;;;7.00;1.50;;;;;;;21.11;31.55;98453.29;1821769;78;21318;-61
2021/06/02 13:17:12;;;;;;;4.55;1.40;;;;;;;20.76;32.82;98449.55;1788436;79;20950;-63
2021/06/02 13:19:43;;;;;;;6.08;1.87;;;;;;;20.45;33.05;98461.64;1789506;79;20872;-63
2021/06/02 13:22:22;;;;;;;4.62;1.80;;;;;;;20.25;33.89;98453.06;1783767;79;20876;-64
2021/06/02 13:24:51;;;;;;;7.25;1.90;;;;;;;20.14;34.48;98447.25;1746380;82;21873;-62
2021/06/02 13:27:20;;;;;;;8.45;2.35;;;;;;;20.20;34.24;98451.91;1745609;82;21039;-62
2021/06/02 13:30:09;;;;;;;15.30;2.65;;;;;;;20.50;34.18;98460.05;1746068;82;20919;-62
2021/06/02 13:32:37;;;;;;;8.33;2.52;;;;;;;21.00;33.69;98456.27;1746732;82;21470;-62
2021/06/02 13:35:18;;;;;;;8.00;1.80;;;;;;;21.39;33.04;98447.80;1746342;81;21069;-61
2021/06/02 13:37:45;;;;;;;9.58;1.98;;;;;;;21.64;32.45;98449.81;1746621;81;21088;-63
2021/06/02 13:40:18;;;;;;;10.08;1.92;;;;;;;21.98;32.85;98437.41;1746183;82;20987;-62
2021/06/02 13:43:18;;;;;;;7.20;1.70;;;;;;;22.04;32.36;98440.90;1746347;81;20947;-63
2021/06/02 13:45:56;;;;;;;7.67;2.90;;;;;;;22.05;32.10;98447.92;1726127;82;20943;-63
2021/06/02 13:48:35;;;;;;;4.85;2.30;;;;;;;22.12;30.66;98439.91;1746500;81;20944;-62
2021/06/02 13:51:18;;;;;;;4.65;1.98;;;;;;;21.89;31.49;98439.53;1726321;82;21155;-63
2021/06/02 13:54:13;;;;;;;5.25;1.77;;;;;;;21.72;31.69;98441.45;1746193;82;20933;-63
2021/06/02 13:57:10;;;;;;;4.22;1.72;;;;;;;21.49;31.56;98439.69;1746488;82;20878;-62
2021/06/02 13:59:52;;;;;;;5.62;1.30;;;;;;;21.52;32.28;98430.25;1746381;82;20934;-63
2021/06/02 14:02:29;;;;;;;2.33;1.32;;;;;;;21.79;31.99;98427.99;1746488;81;21351;-62
2021/06/02 14:05:04;;;;;;;2.17;1.15;;;;;;;21.91;32.05;98434.52;1678514;82;21178;-60
2021/06/02 14:07:31;;;;;;;3.22;1.20;;;;;;;22.18;31.65;98426.79;1746752;82;20964;-64
2021/06/02 14:10:00;;;;;;;5.40;1.70;;;;;;;22.58;32.07;98424.56;1746332;81;20872;-62
2021/06/02 14:12:30;;;;;;;3.72;1.32;;;;;;;23.05;30.91;98434.72;1746329;82;21383;-61
2021/06/02 14:14:58;;;;;;;4.87;1.40;;;;;;;23.34;30.53;98431.16;1746366;81;20963;-61
2021/06/02 14:17:27;;;;;;;6.55;1.87;;;;;;;22.95;29.73;98433.94;1746738;81;21343;-61
2021/06/02 14:19:55;;;;;;;3.00;1.40;;;;;;;22.95;29.73;98433.94;1746278;82;20919;-60
2021/06/02 14:22:24;;;;;;;2.15;1.42;;;;;;;22.50;31.07;98435.09;1746250;82;20911;-60
2021/06/02 14:24:51;;;;;;;3.37;1.45;;;;;;;22.25;31.05;98437.30;1725779;82;20950;-62
2021/06/02 14:27:19;;;;;;;4.72;1.87;;;;;;;22.08;31.34;98436.88;1746381;81;20919;-63
2021/06/02 14:29:47;;;;;;;2.20;1.27;;;;;;;21.93;31.37;98439.07;1702461;82;20947;-61
2021/06/02 14:32:15;;;;;;;2.50;1.42;;;;;;;21.70;31.78;98441.02;1746473;82;21407;-61
2021/06/02 14:34:41;;;;;;;5.15;1.65;;;;;;;21.48;32.07;98450.38;1746439;81;20860;-62
2021/06/02 14:37:09;;;;;;;3.08;1.25;;;;;;;21.18;32.58;98439.06;1760855;79;20884;-62
2021/06/02 14:39:37;;;;;;;4.80;1.70;;;;;;;20.86;32.86;98438.73;1777101;80;20880;-63
2021/06/02 14:42:06;;;;;;;4.97;1.55;;;;;;;20.62;33.85;98440.97;1776976;80;23180;-62
2021/06/02 14:44:32;;;;;;;3.35;1.75;;;;;;;20.42;34.01;98442.71;1777025;80;21536;-61
2021/06/02 14:47:00;;;;;;;5.08;1.60;;;;;;;20.18;34.39;98443.30;1776876;79;20919;-62
2021/06/02 14:49:27;;;;;;;2.17;1.32;;;;;;;19.95;35.01;98442.95;1777282;80;21467;-62
2021/06/02 14:51:57;;;;;;;2.33;1.30;;;;;;;19.78;35.21;98451.36;1783205;79;20993;-63
2021/06/02 14:54:26;;;;;;;2.85;1.50;;;;;;;19.64;35.54;98449.53;1808874;79;21108;-64
2021/06/02 14:56:54;;;;;;;2.83;1.52;;;;;;;19.49;35.59;98451.53;1808826;79;20840;-63
2021/06/02 14:59:21;;;;;;;5.85;1.62;;;;;;;19.42;35.88;98456.73;1808307;79;21236;-64
2021/06/02 15:01:50;;;;;;;3.98;1.50;;;;;;;19.37;36.25;98458.30;1809112;79;21407;-63
2021/06/02 15:04:17;;;;;;;4.90;1.45;;;;;;;19.38;36.45;98457.98;1808904;79;20932;-63
2021/06/02 15:06:45;;;;;;;5.95;1.60;;;;;;;19.38;36.20;98459.89;1808939;79;21895;-64
2021/06/02 15:09:13;;;;;;;3.58;1.50;;;;;;;19.36;36.55;98448.58;1777186;80;20860;-63
2021/06/02 15:11:40;;;;;;;4.20;1.60;;;;;;;19.36;35.70;98456.13;1777224;80;21379;-63
2021/06/02 15:14:07;;;;;;;2.95;1.62;;;;;;;19.34;35.52;98461.64;1777201;80;20920;-64
2021/06/02 15:16:34;;;;;;;3.58;1.40;;;;;;;19.34;36.06;98457.57;1777502;80;20868;-64
2021/06/02 15:19:02;;;;;;;3.55;1.50;;;;;;;19.32;35.14;98453.05;1777183;80;21116;-64
2021/06/02 15:21:29;;;;;;;4.10;1.30;;;;;;;19.24;35.51;98449.31;1777311;79;21394;-64
2021/06/02 15:23:57;;;;;;;4.17;1.45;;;;;;;19.18;36.05;98457.98;1809200;79;20881;-65
2021/06/02 15:26:26;;;;;;;4.87;1.72;;;;;;;19.08;35.85;98459.98;1808891;79;20896;-64
2021/06/02 15:28:57;;;;;;;4.83;1.70;;;;;;;19.01;36.32;98464.37;1779612;79;21407;-64
2021/06/02 15:31:25;;;;;;;5.87;1.70;;;;;;;18.91;36.39;98456.07;1808973;79;21177;-63
2021/06/02 15:33:52;;;;;;;4.95;1.80;;;;;;;18.83;36.54;98465.09;1808981;79;21388;-64
2021/06/02 15:36:19;;;;;;;5.40;1.72;;;;;;;18.73;36.79;98470.92;1801563;79;20998;-61
2021/06/02 15:38:46;;;;;;;5.87;2.12;;;;;;;18.63;37.11;98469.95;1777178;80;21011;-62
2021/06/02 15:41:14;;;;;;;5.47;1.95;;;;;;;18.53;37.22;98469.02;1777228;80;20907;-64
2021/06/02 15:43:43;;;;;;;8.05;1.60;;;;;;;18.48;37.28;98469.76;1777081;80;20915;-63
2021/06/02 15:46:12;;;;;;;4.65;1.70;;;;;;;18.43;37.40;98468.01;1779511;80;20875;-63
2021/06/02 15:48:38;;;;;;;5.42;1.80;;;;;;;18.41;37.51;98467.55;1785463;80;20963;-62
2021/06/02 15:51:06;;;;;;;5.17;1.65;;;;;;;18.40;37.94;98467.30;1785776;80;21434;-63
2021/06/02 15:53:34;;;;;;;6.47;1.85;;;;;;;18.41;37.91;98466.99;1785435;80;20879;-64
2021/06/02 15:56:01;;;;;;;2.42;1.60;;;;;;;18.43;37.71;98462.58;1755018;80;21177;-63
2021/06/02 15:58:30;;;;;;;6.05;1.92;;;;;;;18.45;37.67;98465.75;1785321;80;20907;-62
2021/06/02 16:00:56;;;;;;;6.22;1.90;;;;;;;18.48;37.89;98469.20;1785561;80;21502;-63
2021/06/02 16:03:24;;;;;;;17.17;2.12;;;;;;;18.50;37.60;98464.23;1785428;80;20939;-63
2021/06/02 16:05:52;;;;;;;5.55;1.67;;;;;;;18.52;37.44;98459.27;1789725;79;20923;-64
2021/06/02 16:08:19;;;;;;;7.42;1.67;;;;;;;18.54;37.29;98462.45;1785461;80;21104;-64
2021/06/02 16:10:47;;;;;;;11.28;2.12;;;;;;;18.54;37.41;98462.45;1785366;80;20868;-62
2021/06/02 16:13:14;;;;;;;39.20;5.17;;;;;;;18.52;37.11;98467.41;1785434;80;20872;-62
2021/06/02 16:15:43;;;;;;;4.87;2.90;;;;;;;18.49;37.62;98464.58;1785390;80;20887;-64
2021/06/02 16:18:11;;;;;;;7.85;3.25;;;;;;;18.45;37.70;98464.40;1785456;80;20871;-62
2021/06/02 16:20:41;;;;;;;14.68;2.85;;;;;;;18.42;37.98;98463.70;1786068;79;21187;-63
2021/06/02 16:23:07;;;;;;;3.90;2.10;;;;;;;18.39;38.21;98465.14;1785272;80;20990;-62
2021/06/02 16:25:36;;;;;;;6.50;2.00;;;;;;;18.39;37.08;98462.44;1786335;79;21522;-64
2021/06/02 16:28:05;;;;;;;5.47;1.90;;;;;;;18.44;37.84;98463.59;1803687;79;20958;-61
